createdAt,value
2023-01-21T00:02:14.480Z,18.17
2023-01-21T00:07:09.411Z,17.20
2023-01-21T00:12:04.368Z,20.17
2023-01-21T00:16:57.879Z,19.37
2023-01-21T00:21:49.820Z,20.23
2023-01-21T00:26:41.501Z,21.10
2023-01-21T00:31:33.419Z,19.17
2023-01-21T00:41:37.159Z,17.23
2023-01-21T00:51:34.602Z,19.50
2023-01-21T00:56:26.333Z,17.23
2023-01-21T01:01:21.253Z,23.50
2023-01-21T01:06:20.510Z,17.97
2023-01-21T01:11:14.394Z,17.70
2023-01-21T01:21:16.244Z,15.97
2023-01-21T01:31:35.461Z,19.57
2023-01-21T01:36:27.168Z,16.83
2023-01-21T01:41:27.290Z,18.87
2023-01-21T01:46:20.304Z,20.43
2023-01-21T01:56:23.489Z,16.90
2023-01-21T02:01:15.522Z,16.63
2023-01-21T02:06:07.699Z,20.90
2023-01-21T02:11:00.834Z,22.37
2023-01-21T02:16:34.881Z,22.40
2023-01-21T02:21:57.970Z,19.97
2023-01-21T02:27:12.274Z,20.90
2023-01-21T02:32:34.412Z,24.83
2023-01-21T02:37:36.534Z,22.73
2023-01-21T02:43:28.316Z,21.93
2023-01-21T02:48:45.343Z,23.83
2023-01-21T02:53:37.014Z,22.00
2023-01-21T02:58:35.589Z,26.57
2023-01-21T03:03:55.999Z,23.23
2023-01-21T03:08:58.750Z,25.73
2023-01-21T03:14:39.508Z,25.13
2023-01-21T03:19:42.137Z,28.93
2023-01-21T03:24:37.058Z,22.00
2023-01-21T03:29:31.855Z,24.93
2023-01-21T03:34:30.056Z,21.77
2023-01-21T03:39:33.692Z,25.17
2023-01-21T03:44:26.501Z,26.20
2023-01-21T03:49:34.483Z,24.97
2023-01-21T03:54:26.275Z,24.77
2023-01-21T03:59:17.962Z,24.40
2023-01-21T04:04:10.342Z,22.37
2023-01-21T04:09:03.642Z,23.87
2023-01-21T04:13:55.304Z,29.03
2023-01-21T04:18:47.666Z,27.83
2023-01-21T04:23:39.482Z,24.63
2023-01-21T04:28:31.193Z,31.60
2023-01-21T04:33:23.025Z,24.07
2023-01-21T04:38:15.748Z,24.20
2023-01-21T04:43:07.799Z,28.23
2023-01-21T04:47:59.556Z,27.50
2023-01-21T04:52:51.289Z,26.70
2023-01-21T04:57:43.019Z,22.27
2023-01-21T05:02:37.654Z,23.80
2023-01-21T05:27:56.335Z,25.47
2023-01-21T05:48:14.923Z,28.47
2023-01-21T05:53:07.682Z,24.33
2023-01-21T06:18:26.409Z,27.77
2023-01-21T06:23:22.459Z,28.73
2023-01-21T06:28:19.408Z,35.17
2023-01-21T06:48:32.129Z,29.87
2023-01-21T07:08:54.053Z,26.90
2023-01-21T07:18:53.434Z,32.23
2023-01-21T07:33:58.807Z,33.13
2023-01-21T07:54:07.991Z,26.20
2023-01-21T08:14:19.971Z,25.77
2023-01-21T08:24:34.128Z,22.43
2023-01-21T08:29:27.180Z,29.83
2023-01-21T08:34:20.143Z,26.87
2023-01-21T08:39:14.281Z,25.37
2023-01-21T08:44:08.000Z,24.00
2023-01-21T08:49:07.409Z,23.37
2023-01-21T08:54:00.831Z,20.47
2023-01-21T08:58:58.067Z,22.37
2023-01-21T09:03:55.695Z,21.07
2023-01-21T09:08:48.547Z,18.90
2023-01-21T09:13:41.261Z,19.47
2023-01-21T09:18:33.529Z,22.57
2023-01-21T09:23:33.276Z,18.43
2023-01-21T09:28:25.550Z,21.70
2023-01-21T09:33:17.948Z,17.90
2023-01-21T09:38:14.279Z,21.67
2023-01-21T09:59:26.850Z,21.43
2023-01-21T10:10:09.226Z,12.63
2023-01-21T10:21:16.277Z,12.57
2023-01-21T10:26:14.674Z,16.37
2023-01-21T10:31:28.086Z,17.10
2023-01-21T10:37:18.314Z,14.47
2023-01-21T10:42:35.773Z,13.80
2023-01-21T10:47:56.007Z,13.20
2023-01-21T10:53:36.741Z,14.73
2023-01-21T10:58:59.684Z,15.83
2023-01-21T11:04:05.027Z,15.90
2023-01-21T11:14:10.511Z,14.20
2023-01-21T11:19:11.345Z,17.97
2023-01-21T11:24:21.322Z,19.93
2023-01-21T11:29:24.190Z,17.03
2023-01-21T11:34:23.382Z,17.83
2023-01-21T11:44:24.331Z,21.47
2023-01-21T12:10:34.784Z,19.40
2023-01-21T12:21:53.663Z,20.93
2023-01-21T12:27:05.708Z,22.50
2023-01-21T12:32:12.039Z,23.47
2023-01-21T12:42:48.633Z,20.10
2023-01-21T12:48:14.088Z,24.90
2023-01-21T12:58:40.617Z,21.30
2023-01-21T13:04:24.808Z,19.07
2023-01-21T13:09:37.851Z,24.33
2023-01-21T13:27:02.569Z,23.10
2023-01-21T13:32:17.656Z,23.73
2023-01-21T13:37:44.543Z,19.37
2023-01-21T14:11:20.597Z,16.90
2023-01-21T14:28:25.436Z,18.07
2023-01-21T16:58:32.289Z,13.90
2023-01-21T17:08:31.365Z,15.00
2023-01-21T17:24:05.666Z,14.13
2023-01-21T17:29:18.536Z,14.33
2023-01-21T17:45:05.319Z,12.87
2023-01-21T19:03:01.097Z,9.63
2023-01-21T19:23:34.120Z,9.20
2023-01-21T20:14:39.455Z,9.50
2023-01-21T20:45:02.752Z,9.97
2023-01-21T20:49:58.278Z,9.60
2023-01-21T21:41:29.595Z,8.13
2023-01-21T22:17:58.508Z,10.97
2023-01-21T22:27:59.409Z,7.80
2023-01-21T22:32:54.834Z,8.13
